sensor_id;sensor_type;location;lat;lon;timestamp;P1;durP1;ratioP1;P2;durP2;ratioP2
43160;SDS011;40968;52.342;5.528;2023-07-08T00:00:39;11.18;;;4.18;;
43160;SDS011;40968;52.342;5.528;2023-07-08T00:03:05;11.80;;;3.95;;
43160;SDS011;40968;52.342;5.528;2023-07-08T00:05:32;12.27;;;3.97;;
43160;SDS011;40968;52.342;5.528;2023-07-08T00:07:59;12.90;;;4.15;;
43160;SDS011;40968;52.342;5.528;2023-07-08T00:10:26;10.20;;;4.30;;
43160;SDS011;40968;52.342;5.528;2023-07-08T00:12:56;9.70;;;4.07;;
43160;SDS011;40968;52.342;5.528;2023-07-08T00:15:25;11.88;;;4.20;;
43160;SDS011;40968;52.342;5.528;2023-07-08T00:17:53;12.13;;;4.23;;
43160;SDS011;40968;52.342;5.528;2023-07-08T00:20:22;8.50;;;3.67;;
43160;SDS011;40968;52.342;5.528;2023-07-08T00:22:56;12.25;;;4.40;;
43160;SDS011;40968;52.342;5.528;2023-07-08T00:25:26;10.57;;;4.15;;
43160;SDS011;40968;52.342;5.528;2023-07-08T00:27:53;13.63;;;4.13;;
43160;SDS011;40968;52.342;5.528;2023-07-08T00:30:22;10.75;;;3.58;;
43160;SDS011;40968;52.342;5.528;2023-07-08T00:32:50;12.25;;;3.72;;
43160;SDS011;40968;52.342;5.528;2023-07-08T00:35:19;12.45;;;4.18;;
43160;SDS011;40968;52.342;5.528;2023-07-08T00:37:48;6.63;;;3.58;;
43160;SDS011;40968;52.342;5.528;2023-07-08T00:40:18;7.20;;;3.42;;
43160;SDS011;40968;52.342;5.528;2023-07-08T00:42:45;8.07;;;3.75;;
43160;SDS011;40968;52.342;5.528;2023-07-08T00:45:26;9.30;;;4.10;;
43160;SDS011;40968;52.342;5.528;2023-07-08T00:48:01;8.70;;;3.50;;
43160;SDS011;40968;52.342;5.528;2023-07-08T00:50:33;10.80;;;3.55;;
43160;SDS011;40968;52.342;5.528;2023-07-08T00:55:59;10.02;;;3.80;;
43160;SDS011;40968;52.342;5.528;2023-07-08T00:58:30;11.18;;;3.88;;
43160;SDS011;40968;52.342;5.528;2023-07-08T01:01:01;13.20;;;4.15;;
43160;SDS011;40968;52.342;5.528;2023-07-08T01:03:31;8.30;;;3.60;;
43160;SDS011;40968;52.342;5.528;2023-07-08T01:06:02;7.78;;;3.80;;
43160;SDS011;40968;52.342;5.528;2023-07-08T01:08:30;8.10;;;3.50;;
43160;SDS011;40968;52.342;5.528;2023-07-08T01:10:58;8.57;;;3.70;;
43160;SDS011;40968;52.342;5.528;2023-07-08T01:13:28;8.50;;;3.80;;
43160;SDS011;40968;52.342;5.528;2023-07-08T01:16:01;9.23;;;3.65;;
43160;SDS011;40968;52.342;5.528;2023-07-08T01:18:30;8.20;;;4.20;;
43160;SDS011;40968;52.342;5.528;2023-07-08T01:21:00;9.73;;;4.15;;
43160;SDS011;40968;52.342;5.528;2023-07-08T01:23:31;11.48;;;4.13;;
43160;SDS011;40968;52.342;5.528;2023-07-08T01:25:58;12.50;;;4.07;;
43160;SDS011;40968;52.342;5.528;2023-07-08T01:28:26;7.20;;;4.00;;
43160;SDS011;40968;52.342;5.528;2023-07-08T01:30:53;8.43;;;4.03;;
43160;SDS011;40968;52.342;5.528;2023-07-08T01:33:21;13.45;;;3.92;;
43160;SDS011;40968;52.342;5.528;2023-07-08T01:35:49;14.48;;;4.07;;
43160;SDS011;40968;52.342;5.528;2023-07-08T01:38:17;7.78;;;3.45;;
43160;SDS011;40968;52.342;5.528;2023-07-08T01:40:50;10.68;;;3.70;;
43160;SDS011;40968;52.342;5.528;2023-07-08T01:43:18;11.82;;;3.75;;
43160;SDS011;40968;52.342;5.528;2023-07-08T01:45:45;9.23;;;3.50;;
43160;SDS011;40968;52.342;5.528;2023-07-08T01:48:14;10.45;;;4.05;;
43160;SDS011;40968;52.342;5.528;2023-07-08T01:50:45;11.45;;;4.28;;
43160;SDS011;40968;52.342;5.528;2023-07-08T01:53:16;8.98;;;3.97;;
43160;SDS011;40968;52.342;5.528;2023-07-08T01:55:45;10.82;;;3.90;;
43160;SDS011;40968;52.342;5.528;2023-07-08T01:58:13;11.25;;;3.72;;
43160;SDS011;40968;52.342;5.528;2023-07-08T02:00:40;8.57;;;3.67;;
43160;SDS011;40968;52.342;5.528;2023-07-08T02:03:08;12.13;;;3.83;;
43160;SDS011;40968;52.342;5.528;2023-07-08T02:05:35;8.73;;;4.00;;
43160;SDS011;40968;52.342;5.528;2023-07-08T02:08:01;8.38;;;3.88;;
43160;SDS011;40968;52.342;5.528;2023-07-08T02:10:28;11.88;;;4.30;;
43160;SDS011;40968;52.342;5.528;2023-07-08T02:12:55;11.32;;;4.07;;
43160;SDS011;40968;52.342;5.528;2023-07-08T02:15:23;11.07;;;4.50;;
43160;SDS011;40968;52.342;5.528;2023-07-08T02:17:49;10.27;;;4.30;;
43160;SDS011;40968;52.342;5.528;2023-07-08T02:20:16;10.07;;;4.40;;
43160;SDS011;40968;52.342;5.528;2023-07-08T02:22:43;10.85;;;4.10;;
43160;SDS011;40968;52.342;5.528;2023-07-08T02:25:09;11.75;;;4.35;;
43160;SDS011;40968;52.342;5.528;2023-07-08T02:27:36;10.18;;;4.05;;
43160;SDS011;40968;52.342;5.528;2023-07-08T02:30:03;9.88;;;3.85;;
43160;SDS011;40968;52.342;5.528;2023-07-08T02:32:32;11.90;;;4.00;;
43160;SDS011;40968;52.342;5.528;2023-07-08T02:34:59;11.10;;;3.95;;
43160;SDS011;40968;52.342;5.528;2023-07-08T02:37:26;7.43;;;3.92;;
43160;SDS011;40968;52.342;5.528;2023-07-08T02:39:53;11.95;;;3.97;;
43160;SDS011;40968;52.342;5.528;2023-07-08T02:42:19;8.50;;;3.78;;
43160;SDS011;40968;52.342;5.528;2023-07-08T02:44:46;11.00;;;4.43;;
43160;SDS011;40968;52.342;5.528;2023-07-08T02:47:13;7.70;;;3.83;;
43160;SDS011;40968;52.342;5.528;2023-07-08T02:49:41;8.45;;;4.05;;
43160;SDS011;40968;52.342;5.528;2023-07-08T02:52:07;11.73;;;4.47;;
43160;SDS011;40968;52.342;5.528;2023-07-08T02:54:34;7.57;;;4.05;;
43160;SDS011;40968;52.342;5.528;2023-07-08T02:57:01;9.05;;;3.63;;
43160;SDS011;40968;52.342;5.528;2023-07-08T02:59:28;14.15;;;4.60;;
43160;SDS011;40968;52.342;5.528;2023-07-08T03:01:55;8.57;;;3.83;;
43160;SDS011;40968;52.342;5.528;2023-07-08T03:04:21;11.52;;;4.13;;
43160;SDS011;40968;52.342;5.528;2023-07-08T03:06:51;8.80;;;4.13;;
43160;SDS011;40968;52.342;5.528;2023-07-08T03:09:18;10.93;;;4.10;;
43160;SDS011;40968;52.342;5.528;2023-07-08T03:11:45;9.73;;;4.45;;
43160;SDS011;40968;52.342;5.528;2023-07-08T03:14:12;8.50;;;3.90;;
43160;SDS011;40968;52.342;5.528;2023-07-08T03:16:38;13.40;;;4.65;;
43160;SDS011;40968;52.342;5.528;2023-07-08T03:19:05;11.27;;;4.15;;
43160;SDS011;40968;52.342;5.528;2023-07-08T03:21:32;10.48;;;3.90;;
43160;SDS011;40968;52.342;5.528;2023-07-08T03:24:00;10.88;;;3.85;;
43160;SDS011;40968;52.342;5.528;2023-07-08T03:26:27;9.90;;;4.32;;
43160;SDS011;40968;52.342;5.528;2023-07-08T03:28:53;10.93;;;4.50;;
43160;SDS011;40968;52.342;5.528;2023-07-08T03:31:20;11.73;;;4.35;;
43160;SDS011;40968;52.342;5.528;2023-07-08T03:33:47;11.15;;;4.40;;
43160;SDS011;40968;52.342;5.528;2023-07-08T03:36:14;10.98;;;5.03;;
43160;SDS011;40968;52.342;5.528;2023-07-08T03:38:49;11.10;;;4.47;;
43160;SDS011;40968;52.342;5.528;2023-07-08T03:41:17;11.05;;;4.57;;
43160;SDS011;40968;52.342;5.528;2023-07-08T03:43:44;8.50;;;4.38;;
43160;SDS011;40968;52.342;5.528;2023-07-08T03:46:10;9.32;;;4.53;;
43160;SDS011;40968;52.342;5.528;2023-07-08T03:48:38;10.18;;;4.70;;
43160;SDS011;40968;52.342;5.528;2023-07-08T03:51:04;6.70;;;3.78;;
43160;SDS011;40968;52.342;5.528;2023-07-08T03:53:34;9.88;;;4.32;;
43160;SDS011;40968;52.342;5.528;2023-07-08T03:56:01;9.30;;;4.50;;
43160;SDS011;40968;52.342;5.528;2023-07-08T03:58:29;8.80;;;4.38;;
43160;SDS011;40968;52.342;5.528;2023-07-08T04:00:56;11.05;;;4.30;;
43160;SDS011;40968;52.342;5.528;2023-07-08T04:03:22;16.55;;;4.78;;
43160;SDS011;40968;52.342;5.528;2023-07-08T04:05:49;10.63;;;3.75;;
43160;SDS011;40968;52.342;5.528;2023-07-08T04:08:16;10.95;;;4.30;;
43160;SDS011;40968;52.342;5.528;2023-07-08T04:10:42;9.60;;;4.22;;
43160;SDS011;40968;52.342;5.528;2023-07-08T04:13:09;8.95;;;4.22;;
43160;SDS011;40968;52.342;5.528;2023-07-08T04:15:37;9.32;;;3.83;;
43160;SDS011;40968;52.342;5.528;2023-07-08T04:18:04;15.73;;;4.55;;
43160;SDS011;40968;52.342;5.528;2023-07-08T04:20:30;9.82;;;4.47;;
43160;SDS011;40968;52.342;5.528;2023-07-08T04:22:58;10.93;;;4.20;;
43160;SDS011;40968;52.342;5.528;2023-07-08T04:25:25;10.68;;;4.45;;
43160;SDS011;40968;52.342;5.528;2023-07-08T04:27:51;11.85;;;4.43;;
43160;SDS011;40968;52.342;5.528;2023-07-08T04:30:20;13.65;;;4.47;;
43160;SDS011;40968;52.342;5.528;2023-07-08T04:32:51;12.63;;;5.07;;
43160;SDS011;40968;52.342;5.528;2023-07-08T04:35:18;13.57;;;5.00;;
43160;SDS011;40968;52.342;5.528;2023-07-08T04:37:44;9.38;;;4.55;;
43160;SDS011;40968;52.342;5.528;2023-07-08T04:40:14;14.43;;;4.65;;
43160;SDS011;40968;52.342;5.528;2023-07-08T04:42:45;13.80;;;4.72;;
43160;SDS011;40968;52.342;5.528;2023-07-08T04:45:13;10.93;;;4.18;;
43160;SDS011;40968;52.342;5.528;2023-07-08T04:47:41;10.05;;;4.53;;
43160;SDS011;40968;52.342;5.528;2023-07-08T04:50:10;12.65;;;4.45;;
43160;SDS011;40968;52.342;5.528;2023-07-08T04:52:37;10.73;;;4.68;;
43160;SDS011;40968;52.342;5.528;2023-07-08T04:55:04;9.73;;;4.60;;
43160;SDS011;40968;52.342;5.528;2023-07-08T04:57:31;8.98;;;4.20;;
43160;SDS011;40968;52.342;5.528;2023-07-08T04:59:57;12.07;;;4.88;;
43160;SDS011;40968;52.342;5.528;2023-07-08T05:02:24;11.60;;;4.15;;
43160;SDS011;40968;52.342;5.528;2023-07-08T05:04:51;10.80;;;5.15;;
43160;SDS011;40968;52.342;5.528;2023-07-08T05:07:19;10.55;;;4.80;;
43160;SDS011;40968;52.342;5.528;2023-07-08T05:09:46;9.95;;;4.57;;
43160;SDS011;40968;52.342;5.528;2023-07-08T05:12:12;12.02;;;4.70;;
43160;SDS011;40968;52.342;5.528;2023-07-08T05:14:39;9.73;;;4.53;;
43160;SDS011;40968;52.342;5.528;2023-07-08T05:17:06;12.77;;;4.50;;
43160;SDS011;40968;52.342;5.528;2023-07-08T05:19:32;10.48;;;4.65;;
43160;SDS011;40968;52.342;5.528;2023-07-08T05:21:59;14.90;;;4.60;;
43160;SDS011;40968;52.342;5.528;2023-07-08T05:24:27;10.60;;;4.40;;
43160;SDS011;40968;52.342;5.528;2023-07-08T05:26:53;14.77;;;4.60;;
43160;SDS011;40968;52.342;5.528;2023-07-08T05:29:20;11.27;;;4.78;;
43160;SDS011;40968;52.342;5.528;2023-07-08T05:31:47;19.45;;;5.05;;
43160;SDS011;40968;52.342;5.528;2023-07-08T05:34:13;14.70;;;4.80;;
43160;SDS011;40968;52.342;5.528;2023-07-08T05:36:40;12.18;;;4.85;;
43160;SDS011;40968;52.342;5.528;2023-07-08T05:39:07;13.93;;;4.70;;
43160;SDS011;40968;52.342;5.528;2023-07-08T05:41:35;11.82;;;4.95;;
43160;SDS011;40968;52.342;5.528;2023-07-08T05:44:02;12.88;;;4.68;;
43160;SDS011;40968;52.342;5.528;2023-07-08T05:46:28;13.95;;;4.90;;
43160;SDS011;40968;52.342;5.528;2023-07-08T05:48:55;12.38;;;5.25;;
43160;SDS011;40968;52.342;5.528;2023-07-08T05:51:22;11.10;;;4.28;;
43160;SDS011;40968;52.342;5.528;2023-07-08T05:53:48;12.52;;;4.90;;
43160;SDS011;40968;52.342;5.528;2023-07-08T05:56:15;9.68;;;4.10;;
43160;SDS011;40968;52.342;5.528;2023-07-08T05:58:43;11.93;;;4.80;;
43160;SDS011;40968;52.342;5.528;2023-07-08T06:01:10;10.07;;;4.15;;
43160;SDS011;40968;52.342;5.528;2023-07-08T06:03:36;8.75;;;4.60;;
43160;SDS011;40968;52.342;5.528;2023-07-08T06:06:03;13.70;;;4.43;;
43160;SDS011;40968;52.342;5.528;2023-07-08T06:08:31;9.90;;;4.15;;
43160;SDS011;40968;52.342;5.528;2023-07-08T06:10:58;12.15;;;4.28;;
43160;SDS011;40968;52.342;5.528;2023-07-08T06:13:24;10.88;;;4.47;;
43160;SDS011;40968;52.342;5.528;2023-07-08T06:15:52;16.52;;;4.28;;
43160;SDS011;40968;52.342;5.528;2023-07-08T06:18:19;16.33;;;4.65;;
43160;SDS011;40968;52.342;5.528;2023-07-08T06:20:52;10.07;;;4.68;;
43160;SDS011;40968;52.342;5.528;2023-07-08T06:23:20;11.40;;;4.68;;
43160;SDS011;40968;52.342;5.528;2023-07-08T06:25:47;10.13;;;4.20;;
43160;SDS011;40968;52.342;5.528;2023-07-08T06:28:14;7.47;;;3.88;;
43160;SDS011;40968;52.342;5.528;2023-07-08T06:30:41;12.85;;;4.57;;
43160;SDS011;40968;52.342;5.528;2023-07-08T06:33:09;11.88;;;4.43;;
43160;SDS011;40968;52.342;5.528;2023-07-08T06:35:36;8.85;;;4.40;;
43160;SDS011;40968;52.342;5.528;2023-07-08T06:38:03;11.65;;;4.22;;
43160;SDS011;40968;52.342;5.528;2023-07-08T06:40:31;10.15;;;3.90;;
43160;SDS011;40968;52.342;5.528;2023-07-08T06:42:57;10.40;;;4.10;;
43160;SDS011;40968;52.342;5.528;2023-07-08T06:45:24;9.40;;;3.70;;
43160;SDS011;40968;52.342;5.528;2023-07-08T06:47:51;8.35;;;3.95;;
43160;SDS011;40968;52.342;5.528;2023-07-08T06:50:19;13.40;;;4.13;;
43160;SDS011;40968;52.342;5.528;2023-07-08T06:52:46;9.27;;;3.88;;
43160;SDS011;40968;52.342;5.528;2023-07-08T06:55:12;11.65;;;4.10;;
43160;SDS011;40968;52.342;5.528;2023-07-08T06:57:39;6.85;;;3.70;;
43160;SDS011;40968;52.342;5.528;2023-07-08T07:00:07;9.88;;;3.80;;
43160;SDS011;40968;52.342;5.528;2023-07-08T07:02:35;10.23;;;3.45;;
43160;SDS011;40968;52.342;5.528;2023-07-08T07:05:02;6.43;;;3.42;;
43160;SDS011;40968;52.342;5.528;2023-07-08T07:07:30;7.55;;;3.30;;
43160;SDS011;40968;52.342;5.528;2023-07-08T07:09:57;11.15;;;3.60;;
43160;SDS011;40968;52.342;5.528;2023-07-08T07:12:26;7.60;;;3.65;;
43160;SDS011;40968;52.342;5.528;2023-07-08T07:14:56;7.32;;;3.33;;
43160;SDS011;40968;52.342;5.528;2023-07-08T07:17:23;12.95;;;3.63;;
43160;SDS011;40968;52.342;5.528;2023-07-08T07:19:50;9.07;;;3.47;;
43160;SDS011;40968;52.342;5.528;2023-07-08T07:22:17;10.52;;;3.83;;
43160;SDS011;40968;52.342;5.528;2023-07-08T07:24:45;8.45;;;3.47;;
43160;SDS011;40968;52.342;5.528;2023-07-08T07:27:12;8.57;;;3.58;;
43160;SDS011;40968;52.342;5.528;2023-07-08T07:29:40;8.13;;;3.35;;
43160;SDS011;40968;52.342;5.528;2023-07-08T07:32:08;9.40;;;3.33;;
43160;SDS011;40968;52.342;5.528;2023-07-08T07:34:35;7.28;;;3.25;;
43160;SDS011;40968;52.342;5.528;2023-07-08T07:37:03;9.25;;;3.42;;
43160;SDS011;40968;52.342;5.528;2023-07-08T07:39:30;9.35;;;4.05;;
43160;SDS011;40968;52.342;5.528;2023-07-08T07:41:58;12.95;;;4.28;;
43160;SDS011;40968;52.342;5.528;2023-07-08T07:44:25;7.68;;;2.95;;
43160;SDS011;40968;52.342;5.528;2023-07-08T07:46:52;12.25;;;3.25;;
43160;SDS011;40968;52.342;5.528;2023-07-08T07:49:19;5.93;;;3.42;;
43160;SDS011;40968;52.342;5.528;2023-07-08T07:51:46;9.35;;;3.70;;
43160;SDS011;40968;52.342;5.528;2023-07-08T07:54:13;7.47;;;3.40;;
43160;SDS011;40968;52.342;5.528;2023-07-08T07:56:40;11.15;;;3.33;;
43160;SDS011;40968;52.342;5.528;2023-07-08T07:59:08;8.15;;;3.28;;
43160;SDS011;40968;52.342;5.528;2023-07-08T08:01:36;12.23;;;3.80;;
43160;SDS011;40968;52.342;5.528;2023-07-08T08:04:03;9.23;;;3.33;;
43160;SDS011;40968;52.342;5.528;2023-07-08T08:06:30;11.45;;;3.38;;
43160;SDS011;40968;52.342;5.528;2023-07-08T08:08:56;9.23;;;3.50;;
43160;SDS011;40968;52.342;5.528;2023-07-08T08:11:24;6.88;;;3.78;;
43160;SDS011;40968;52.342;5.528;2023-07-08T08:13:51;11.30;;;3.95;;
43160;SDS011;40968;52.342;5.528;2023-07-08T08:16:20;10.40;;;3.67;;
43160;SDS011;40968;52.342;5.528;2023-07-08T08:18:47;7.32;;;3.38;;
43160;SDS011;40968;52.342;5.528;2023-07-08T08:21:13;11.13;;;3.80;;
43160;SDS011;40968;52.342;5.528;2023-07-08T08:23:40;8.10;;;3.78;;
43160;SDS011;40968;52.342;5.528;2023-07-08T08:26:07;9.98;;;3.80;;
43160;SDS011;40968;52.342;5.528;2023-07-08T08:28:34;9.60;;;3.42;;
43160;SDS011;40968;52.342;5.528;2023-07-08T08:31:01;9.68;;;4.22;;
43160;SDS011;40968;52.342;5.528;2023-07-08T08:33:29;9.70;;;3.95;;
43160;SDS011;40968;52.342;5.528;2023-07-08T08:35:55;7.10;;;3.42;;
43160;SDS011;40968;52.342;5.528;2023-07-08T08:38:22;11.23;;;3.72;;
43160;SDS011;40968;52.342;5.528;2023-07-08T08:40:49;9.30;;;4.43;;
43160;SDS011;40968;52.342;5.528;2023-07-08T08:43:16;8.13;;;4.00;;
43160;SDS011;40968;52.342;5.528;2023-07-08T08:45:48;9.50;;;3.78;;
43160;SDS011;40968;52.342;5.528;2023-07-08T08:48:21;7.68;;;3.85;;
43160;SDS011;40968;52.342;5.528;2023-07-08T08:50:52;9.02;;;3.90;;
43160;SDS011;40968;52.342;5.528;2023-07-08T08:53:22;9.77;;;3.90;;
43160;SDS011;40968;52.342;5.528;2023-07-08T08:55:51;9.25;;;4.15;;
43160;SDS011;40968;52.342;5.528;2023-07-08T08:58:26;9.95;;;3.90;;
43160;SDS011;40968;52.342;5.528;2023-07-08T09:01:00;9.57;;;4.20;;
43160;SDS011;40968;52.342;5.528;2023-07-08T09:03:36;13.68;;;4.15;;
43160;SDS011;40968;52.342;5.528;2023-07-08T09:06:11;12.35;;;4.10;;
43160;SDS011;40968;52.342;5.528;2023-07-08T09:08:39;9.05;;;4.03;;
43160;SDS011;40968;52.342;5.528;2023-07-08T09:11:10;9.25;;;3.58;;
43160;SDS011;40968;52.342;5.528;2023-07-08T09:13:44;8.98;;;4.22;;
43160;SDS011;40968;52.342;5.528;2023-07-08T09:16:14;11.77;;;3.55;;
43160;SDS011;40968;52.342;5.528;2023-07-08T09:18:51;8.65;;;3.67;;
43160;SDS011;40968;52.342;5.528;2023-07-08T09:21:26;14.30;;;3.92;;
43160;SDS011;40968;52.342;5.528;2023-07-08T09:23:59;12.10;;;4.38;;
43160;SDS011;40968;52.342;5.528;2023-07-08T09:26:30;8.70;;;4.00;;
43160;SDS011;40968;52.342;5.528;2023-07-08T09:28:59;8.27;;;3.83;;
43160;SDS011;40968;52.342;5.528;2023-07-08T09:31:26;8.02;;;3.88;;
43160;SDS011;40968;52.342;5.528;2023-07-08T09:34:04;8.93;;;3.83;;
43160;SDS011;40968;52.342;5.528;2023-07-08T09:36:38;11.18;;;3.72;;
43160;SDS011;40968;52.342;5.528;2023-07-08T09:39:08;9.98;;;4.20;;
43160;SDS011;40968;52.342;5.528;2023-07-08T09:41:36;12.57;;;4.57;;
43160;SDS011;40968;52.342;5.528;2023-07-08T09:44:04;10.00;;;4.25;;
43160;SDS011;40968;52.342;5.528;2023-07-08T09:46:36;8.70;;;3.80;;
43160;SDS011;40968;52.342;5.528;2023-07-08T09:49:15;9.15;;;4.00;;
43160;SDS011;40968;52.342;5.528;2023-07-08T09:51:45;8.65;;;4.10;;
43160;SDS011;40968;52.342;5.528;2023-07-08T09:54:15;9.88;;;4.00;;
43160;SDS011;40968;52.342;5.528;2023-07-08T09:56:42;9.27;;;4.22;;
43160;SDS011;40968;52.342;5.528;2023-07-08T09:59:13;10.20;;;4.30;;
43160;SDS011;40968;52.342;5.528;2023-07-08T10:01:41;12.57;;;4.80;;
43160;SDS011;40968;52.342;5.528;2023-07-08T10:04:08;16.42;;;5.03;;
43160;SDS011;40968;52.342;5.528;2023-07-08T10:06:35;13.02;;;4.35;;
43160;SDS011;40968;52.342;5.528;2023-07-08T10:09:04;10.85;;;4.53;;
43160;SDS011;40968;52.342;5.528;2023-07-08T10:11:35;8.13;;;4.18;;
43160;SDS011;40968;52.342;5.528;2023-07-08T10:14:09;9.73;;;4.03;;
43160;SDS011;40968;52.342;5.528;2023-07-08T10:16:49;11.50;;;4.38;;
43160;SDS011;40968;52.342;5.528;2023-07-08T10:19:16;10.73;;;4.90;;
43160;SDS011;40968;52.342;5.528;2023-07-08T10:21:47;16.50;;;4.93;;
43160;SDS011;40968;52.342;5.528;2023-07-08T10:24:33;9.63;;;4.15;;
43160;SDS011;40968;52.342;5.528;2023-07-08T10:27:17;8.93;;;4.13;;
43160;SDS011;40968;52.342;5.528;2023-07-08T10:29:52;10.85;;;4.43;;
43160;SDS011;40968;52.342;5.528;2023-07-08T10:32:28;14.20;;;5.38;;
43160;SDS011;40968;52.342;5.528;2023-07-08T10:35:09;13.30;;;4.50;;
43160;SDS011;40968;52.342;5.528;2023-07-08T10:37:46;10.82;;;4.85;;
43160;SDS011;40968;52.342;5.528;2023-07-08T10:40:30;9.70;;;4.63;;
43160;SDS011;40968;52.342;5.528;2023-07-08T10:43:06;12.65;;;4.95;;
43160;SDS011;40968;52.342;5.528;2023-07-08T10:45:44;9.73;;;4.40;;
43160;SDS011;40968;52.342;5.528;2023-07-08T10:48:20;8.50;;;4.15;;
43160;SDS011;40968;52.342;5.528;2023-07-08T10:51:10;12.93;;;4.55;;
43160;SDS011;40968;52.342;5.528;2023-07-08T10:54:09;9.52;;;4.57;;
43160;SDS011;40968;52.342;5.528;2023-07-08T10:56:55;11.73;;;4.45;;
43160;SDS011;40968;52.342;5.528;2023-07-08T10:59:35;14.00;;;4.50;;
43160;SDS011;40968;52.342;5.528;2023-07-08T11:02:15;11.00;;;4.75;;
43160;SDS011;40968;52.342;5.528;2023-07-08T11:05:18;11.73;;;4.30;;
43160;SDS011;40968;52.342;5.528;2023-07-08T11:07:54;15.80;;;4.95;;
43160;SDS011;40968;52.342;5.528;2023-07-08T11:10:25;10.52;;;5.25;;
43160;SDS011;40968;52.342;5.528;2023-07-08T11:12:59;10.65;;;4.57;;
43160;SDS011;40968;52.342;5.528;2023-07-08T11:15:29;17.52;;;5.63;;
43160;SDS011;40968;52.342;5.528;2023-07-08T11:18:03;15.68;;;5.43;;
43160;SDS011;40968;52.342;5.528;2023-07-08T11:20:35;11.55;;;5.05;;
43160;SDS011;40968;52.342;5.528;2023-07-08T11:23:08;16.95;;;5.75;;
43160;SDS011;40968;52.342;5.528;2023-07-08T11:25:43;11.35;;;4.63;;
43160;SDS011;40968;52.342;5.528;2023-07-08T11:28:18;13.45;;;5.00;;
43160;SDS011;40968;52.342;5.528;2023-07-08T11:30:49;13.50;;;5.55;;
43160;SDS011;40968;52.342;5.528;2023-07-08T11:33:18;15.98;;;5.72;;
43160;SDS011;40968;52.342;5.528;2023-07-08T11:35:49;13.75;;;5.80;;
43160;SDS011;40968;52.342;5.528;2023-07-08T11:38:21;15.50;;;5.65;;
43160;SDS011;40968;52.342;5.528;2023-07-08T11:40:49;14.85;;;5.32;;
43160;SDS011;40968;52.342;5.528;2023-07-08T11:43:19;10.88;;;4.75;;
43160;SDS011;40968;52.342;5.528;2023-07-08T11:45:48;15.35;;;5.55;;
43160;SDS011;40968;52.342;5.528;2023-07-08T11:48:17;14.23;;;5.53;;
43160;SDS011;40968;52.342;5.528;2023-07-08T11:50:53;12.52;;;5.00;;
43160;SDS011;40968;52.342;5.528;2023-07-08T11:53:37;15.88;;;5.20;;
43160;SDS011;40968;52.342;5.528;2023-07-08T11:56:22;10.30;;;4.93;;
43160;SDS011;40968;52.342;5.528;2023-07-08T11:59:11;15.35;;;5.32;;
43160;SDS011;40968;52.342;5.528;2023-07-08T12:01:46;12.80;;;4.78;;
43160;SDS011;40968;52.342;5.528;2023-07-08T12:07:06;10.73;;;4.95;;
43160;SDS011;40968;52.342;5.528;2023-07-08T12:09:39;11.55;;;5.28;;
43160;SDS011;40968;52.342;5.528;2023-07-08T12:12:23;13.02;;;5.22;;
43160;SDS011;40968;52.342;5.528;2023-07-08T12:14:55;12.18;;;4.95;;
43160;SDS011;40968;52.342;5.528;2023-07-08T12:17:27;15.32;;;5.25;;
43160;SDS011;40968;52.342;5.528;2023-07-08T12:19:56;14.05;;;6.13;;
43160;SDS011;40968;52.342;5.528;2023-07-08T12:22:28;11.05;;;4.60;;
43160;SDS011;40968;52.342;5.528;2023-07-08T12:24:55;12.35;;;5.22;;
43160;SDS011;40968;52.342;5.528;2023-07-08T12:27:23;16.35;;;5.40;;
43160;SDS011;40968;52.342;5.528;2023-07-08T12:29:51;19.10;;;5.40;;
43160;SDS011;40968;52.342;5.528;2023-07-08T12:32:19;12.73;;;5.10;;
43160;SDS011;40968;52.342;5.528;2023-07-08T12:34:50;10.00;;;4.60;;
43160;SDS011;40968;52.342;5.528;2023-07-08T12:37:17;12.93;;;5.40;;
43160;SDS011;40968;52.342;5.528;2023-07-08T12:39:44;13.07;;;4.95;;
43160;SDS011;40968;52.342;5.528;2023-07-08T12:42:20;22.85;;;5.43;;
43160;SDS011;40968;52.342;5.528;2023-07-08T12:44:47;19.02;;;5.38;;
43160;SDS011;40968;52.342;5.528;2023-07-08T12:47:14;12.52;;;5.40;;
43160;SDS011;40968;52.342;5.528;2023-07-08T12:49:48;11.07;;;5.20;;
43160;SDS011;40968;52.342;5.528;2023-07-08T12:52:21;13.20;;;5.70;;
43160;SDS011;40968;52.342;5.528;2023-07-08T12:54:49;13.00;;;5.70;;
43160;SDS011;40968;52.342;5.528;2023-07-08T12:57:16;12.77;;;5.00;;
43160;SDS011;40968;52.342;5.528;2023-07-08T12:59:44;11.05;;;4.75;;
43160;SDS011;40968;52.342;5.528;2023-07-08T13:02:14;13.75;;;5.22;;
43160;SDS011;40968;52.342;5.528;2023-07-08T13:04:43;16.77;;;5.15;;
43160;SDS011;40968;52.342;5.528;2023-07-08T13:07:15;13.52;;;5.43;;
43160;SDS011;40968;52.342;5.528;2023-07-08T13:09:50;9.07;;;4.50;;
43160;SDS011;40968;52.342;5.528;2023-07-08T13:12:18;11.43;;;5.25;;
43160;SDS011;40968;52.342;5.528;2023-07-08T13:14:49;15.10;;;5.15;;
43160;SDS011;40968;52.342;5.528;2023-07-08T13:17:18;15.43;;;5.25;;
43160;SDS011;40968;52.342;5.528;2023-07-08T13:19:45;11.88;;;5.45;;
43160;SDS011;40968;52.342;5.528;2023-07-08T13:22:16;8.93;;;4.45;;
43160;SDS011;40968;52.342;5.528;2023-07-08T13:24:44;14.00;;;5.13;;
43160;SDS011;40968;52.342;5.528;2023-07-08T13:27:20;14.75;;;5.43;;
43160;SDS011;40968;52.342;5.528;2023-07-08T13:29:50;14.27;;;5.65;;
43160;SDS011;40968;52.342;5.528;2023-07-08T13:32:18;11.50;;;5.37;;
43160;SDS011;40968;52.342;5.528;2023-07-08T13:34:44;13.55;;;5.70;;
43160;SDS011;40968;52.342;5.528;2023-07-08T13:37:16;16.38;;;5.88;;
43160;SDS011;40968;52.342;5.528;2023-07-08T13:39:46;13.65;;;5.07;;
43160;SDS011;40968;52.342;5.528;2023-07-08T13:42:13;12.18;;;5.30;;
43160;SDS011;40968;52.342;5.528;2023-07-08T13:44:43;12.68;;;5.05;;
43160;SDS011;40968;52.342;5.528;2023-07-08T13:47:19;15.65;;;5.70;;
43160;SDS011;40968;52.342;5.528;2023-07-08T13:49:48;12.95;;;5.07;;
43160;SDS011;40968;52.342;5.528;2023-07-08T13:52:22;15.10;;;5.75;;
43160;SDS011;40968;52.342;5.528;2023-07-08T13:54:49;17.27;;;5.47;;
43160;SDS011;40968;52.342;5.528;2023-07-08T13:57:20;14.55;;;4.97;;
43160;SDS011;40968;52.342;5.528;2023-07-08T13:59:48;13.27;;;5.20;;
43160;SDS011;40968;52.342;5.528;2023-07-08T14:02:16;10.13;;;4.93;;
43160;SDS011;40968;52.342;5.528;2023-07-08T14:04:45;19.77;;;5.65;;
43160;SDS011;40968;52.342;5.528;2023-07-08T14:07:13;12.70;;;5.13;;
43160;SDS011;40968;52.342;5.528;2023-07-08T14:09:44;16.42;;;5.07;;
43160;SDS011;40968;52.342;5.528;2023-07-08T14:12:11;10.27;;;4.80;;
43160;SDS011;40968;52.342;5.528;2023-07-08T14:14:38;9.98;;;4.70;;
43160;SDS011;40968;52.342;5.528;2023-07-08T14:17:07;10.35;;;4.88;;
43160;SDS011;40968;52.342;5.528;2023-07-08T14:19:37;13.05;;;4.75;;
43160;SDS011;40968;52.342;5.528;2023-07-08T14:22:09;15.15;;;4.85;;
43160;SDS011;40968;52.342;5.528;2023-07-08T14:24:48;13.27;;;4.55;;
43160;SDS011;40968;52.342;5.528;2023-07-08T14:27:15;10.52;;;5.15;;
43160;SDS011;40968;52.342;5.528;2023-07-08T14:29:43;11.68;;;5.18;;
43160;SDS011;40968;52.342;5.528;2023-07-08T14:32:12;14.33;;;5.10;;
43160;SDS011;40968;52.342;5.528;2023-07-08T14:34:41;10.15;;;4.65;;
43160;SDS011;40968;52.342;5.528;2023-07-08T14:37:11;12.55;;;4.55;;
43160;SDS011;40968;52.342;5.528;2023-07-08T14:39:40;13.27;;;4.53;;
43160;SDS011;40968;52.342;5.528;2023-07-08T14:42:09;9.57;;;4.60;;
43160;SDS011;40968;52.342;5.528;2023-07-08T14:44:37;15.57;;;4.57;;
43160;SDS011;40968;52.342;5.528;2023-07-08T14:47:07;13.23;;;4.68;;
43160;SDS011;40968;52.342;5.528;2023-07-08T14:49:34;11.95;;;5.00;;
43160;SDS011;40968;52.342;5.528;2023-07-08T14:52:01;13.52;;;5.05;;
43160;SDS011;40968;52.342;5.528;2023-07-08T14:54:28;11.13;;;4.63;;
43160;SDS011;40968;52.342;5.528;2023-07-08T14:56:55;13.25;;;5.03;;